createdAt,value
2024-02-14T00:00:03.718Z,78.80
2024-02-14T00:03:29.558Z,78.80
2024-02-14T00:06:54.628Z,78.90
2024-02-14T00:10:18.395Z,79.00
2024-02-14T00:13:42.503Z,79.90
2024-02-14T00:17:06.841Z,79.30
2024-02-14T00:20:30.546Z,79.30
2024-02-14T00:23:55.522Z,79.50
2024-02-14T00:27:19.357Z,79.60
2024-02-14T00:30:42.904Z,79.60
2024-02-14T00:34:07.038Z,79.70
2024-02-14T00:37:30.961Z,79.90
2024-02-14T00:40:55.993Z,80.10
2024-02-14T00:44:20.222Z,80.30
2024-02-14T00:47:44.042Z,80.70
2024-02-14T00:51:08.038Z,81.00
2024-02-14T00:54:31.730Z,81.30
2024-02-14T00:57:57.352Z,81.50
2024-02-14T01:01:20.840Z,81.80
2024-02-14T01:04:44.331Z,81.90
2024-02-14T01:08:08.565Z,82.00
2024-02-14T01:11:32.435Z,82.30
2024-02-14T01:14:57.850Z,82.40
2024-02-14T01:18:21.612Z,82.60
2024-02-14T01:21:49.227Z,82.90
2024-02-14T01:25:13.209Z,82.90
2024-02-14T01:28:36.676Z,83.30
2024-02-14T01:32:01.597Z,83.10
2024-02-14T01:35:25.381Z,83.00
2024-02-14T01:38:48.956Z,83.20
2024-02-14T01:42:12.944Z,83.20
2024-02-14T01:45:36.487Z,82.90
2024-02-14T01:49:01.674Z,83.00
2024-02-14T01:52:26.003Z,82.90
2024-02-14T01:55:49.697Z,83.10
2024-02-14T01:59:17.097Z,83.20
2024-02-14T02:02:41.054Z,83.20
2024-02-14T02:06:11.414Z,83.20
2024-02-14T02:09:35.108Z,83.30
2024-02-14T02:13:01.917Z,83.50
2024-02-14T02:16:25.784Z,83.50
2024-02-14T02:19:50.395Z,83.80
2024-02-14T02:23:16.072Z,83.80
2024-02-14T02:26:40.603Z,83.70
2024-02-14T02:30:06.080Z,83.80
2024-02-14T02:33:29.782Z,84.00
2024-02-14T02:36:53.828Z,83.90
2024-02-14T02:40:19.028Z,84.00
2024-02-14T02:43:42.581Z,84.00
2024-02-14T02:47:06.520Z,83.80
2024-02-14T02:50:31.231Z,83.80
2024-02-14T02:53:55.182Z,83.80
2024-02-14T02:57:20.099Z,83.40
2024-02-14T03:00:43.600Z,83.30
2024-02-14T03:04:08.061Z,83.40
2024-02-14T03:07:31.549Z,83.30
2024-02-14T03:10:55.438Z,83.20
2024-02-14T03:14:20.324Z,83.30
2024-02-14T03:17:44.485Z,83.00
2024-02-14T03:21:08.472Z,82.70
2024-02-14T03:24:31.937Z,82.40
2024-02-14T03:27:55.431Z,82.40
2024-02-14T03:31:21.669Z,82.30
2024-02-14T03:34:45.169Z,82.20
2024-02-14T03:38:09.843Z,82.30
2024-02-14T03:41:33.834Z,82.20
2024-02-14T03:45:03.616Z,82.10
2024-02-14T03:48:28.982Z,82.60
2024-02-14T03:51:55.615Z,82.90
2024-02-14T03:55:20.233Z,83.20
2024-02-14T03:58:43.991Z,83.60
2024-02-14T04:02:11.210Z,83.80
2024-02-14T04:05:37.431Z,84.10
2024-02-14T04:09:01.093Z,84.30
2024-02-14T04:12:25.034Z,84.30
2024-02-14T04:15:48.732Z,84.50
2024-02-14T04:19:14.092Z,84.60
2024-02-14T04:22:39.180Z,84.70
2024-02-14T04:26:02.574Z,84.80
2024-02-14T04:29:26.135Z,85.00
2024-02-14T04:32:50.371Z,85.00
2024-02-14T04:36:14.062Z,85.00
2024-02-14T04:39:38.945Z,84.90
2024-02-14T04:43:03.962Z,84.50
2024-02-14T04:46:27.908Z,84.30
2024-02-14T04:49:52.594Z,84.10
2024-02-14T04:53:17.508Z,84.20
2024-02-14T04:56:42.423Z,84.10
2024-02-14T05:00:09.992Z,84.30
2024-02-14T05:03:33.863Z,84.40
2024-02-14T05:06:59.403Z,84.40
2024-02-14T05:10:23.386Z,84.60
2024-02-14T05:13:48.932Z,84.80
2024-02-14T05:17:12.788Z,84.70
2024-02-14T05:20:36.690Z,84.70
2024-02-14T05:24:00.297Z,84.90
2024-02-14T05:27:23.791Z,85.00
2024-02-14T05:30:48.628Z,85.40
2024-02-14T05:34:12.710Z,84.80
2024-02-14T05:37:39.269Z,85.10
2024-02-14T05:41:03.017Z,85.00
2024-02-14T05:44:28.348Z,84.60
2024-02-14T05:47:53.492Z,84.80
2024-02-14T05:51:17.001Z,84.40
2024-02-14T05:54:40.887Z,84.00
2024-02-14T05:58:04.556Z,84.00
2024-02-14T06:01:29.820Z,83.60
2024-02-14T06:04:54.738Z,83.50
2024-02-14T06:08:18.175Z,83.30
2024-02-14T06:11:41.942Z,83.30
2024-02-14T06:15:06.861Z,83.30
2024-02-14T06:18:30.532Z,83.10
2024-02-14T06:21:55.635Z,82.90
2024-02-14T06:25:19.138Z,82.80
2024-02-14T06:28:42.732Z,82.60
2024-02-14T06:32:07.653Z,82.30
2024-02-14T06:35:32.506Z,82.30
2024-02-14T06:38:57.611Z,82.40
2024-02-14T06:42:20.979Z,82.60
2024-02-14T06:45:44.740Z,82.80
2024-02-14T06:49:08.868Z,83.10
2024-02-14T06:52:32.451Z,83.50
2024-02-14T06:55:57.482Z,84.20
2024-02-14T06:59:20.998Z,84.20
2024-02-14T07:02:45.208Z,84.30
2024-02-14T07:06:09.142Z,84.30
2024-02-14T07:09:33.753Z,84.10
2024-02-14T07:12:58.580Z,84.30
2024-02-14T07:16:22.145Z,84.30
2024-02-14T07:19:50.662Z,84.60
2024-02-14T07:23:14.155Z,84.50
2024-02-14T07:26:38.054Z,85.10
2024-02-14T07:30:03.109Z,85.00
2024-02-14T07:33:27.216Z,85.50
2024-02-14T07:36:50.753Z,85.40
2024-02-14T07:40:16.869Z,85.70
2024-02-14T07:43:42.070Z,85.20
2024-02-14T07:47:07.967Z,85.00
2024-02-14T07:50:31.794Z,84.70
2024-02-14T07:53:55.293Z,85.00
2024-02-14T07:57:18.887Z,84.20
2024-02-14T08:00:42.433Z,85.40
2024-02-14T08:04:08.301Z,84.60
2024-02-14T08:07:31.767Z,84.80
2024-02-14T08:10:55.459Z,85.20
2024-02-14T08:14:18.886Z,85.10
2024-02-14T08:17:46.545Z,85.10
2024-02-14T08:21:13.252Z,85.20
2024-02-14T08:24:36.926Z,85.30
2024-02-14T08:28:00.685Z,85.50
2024-02-14T08:31:24.345Z,85.60
2024-02-14T08:34:48.893Z,85.60
2024-02-14T08:38:13.773Z,85.50
2024-02-14T08:41:37.278Z,85.40
2024-02-14T08:45:00.778Z,85.90
2024-02-14T08:48:24.595Z,86.40
2024-02-14T08:51:48.739Z,87.10
2024-02-14T08:55:18.662Z,87.70
2024-02-14T08:58:42.603Z,88.30
2024-02-14T09:02:06.214Z,88.90
2024-02-14T09:05:31.346Z,89.30
2024-02-14T09:08:55.830Z,90.10
2024-02-14T09:12:20.691Z,90.20
2024-02-14T09:15:45.348Z,90.00
2024-02-14T09:19:09.257Z,90.00
2024-02-14T09:22:32.791Z,89.00
2024-02-14T09:25:58.462Z,88.30
2024-02-14T09:29:23.475Z,87.60
2024-02-14T09:32:48.686Z,86.50
2024-02-14T09:36:12.324Z,86.10
2024-02-14T09:39:37.766Z,85.30
2024-02-14T09:43:07.811Z,85.20
2024-02-14T09:46:33.728Z,85.40
2024-02-14T09:49:59.390Z,85.50
2024-02-14T09:53:24.987Z,86.10
2024-02-14T09:56:54.612Z,87.10
2024-02-14T10:00:19.652Z,87.40
2024-02-14T10:03:45.136Z,87.50
2024-02-14T10:07:09.765Z,87.40
2024-02-14T10:10:35.678Z,87.70
2024-02-14T10:14:03.948Z,87.20
2024-02-14T10:17:27.907Z,87.20
2024-02-14T10:20:59.325Z,87.40
2024-02-14T10:24:22.953Z,87.60
2024-02-14T10:27:48.695Z,89.60
2024-02-14T10:31:14.192Z,90.50
2024-02-14T10:34:41.052Z,91.40
2024-02-14T10:38:07.447Z,94.60
2024-02-14T10:41:36.405Z,97.00
2024-02-14T10:45:00.036Z,97.70
2024-02-14T10:48:28.007Z,97.10
2024-02-14T10:55:23.686Z,96.40
2024-02-14T10:58:50.526Z,95.10
2024-02-14T11:02:16.235Z,93.50
2024-02-14T11:05:49.690Z,88.90
2024-02-14T11:09:18.312Z,85.20
2024-02-14T11:12:43.681Z,83.70
2024-02-14T11:16:11.556Z,84.20
2024-02-14T11:30:08.888Z,81.70
2024-02-14T11:33:32.968Z,76.70
2024-02-14T11:36:57.179Z,78.20
2024-02-14T11:40:22.048Z,78.00
2024-02-14T11:43:53.908Z,78.80
2024-02-14T11:47:18.938Z,78.20
2024-02-14T11:50:44.107Z,80.00
2024-02-14T11:54:09.147Z,80.30
2024-02-14T11:57:32.890Z,80.90
2024-02-14T12:00:56.621Z,80.20
2024-02-14T12:04:22.409Z,81.50
2024-02-14T12:07:46.275Z,80.70
2024-02-14T12:11:10.480Z,82.10
2024-02-14T12:14:35.872Z,81.60
2024-02-14T12:18:00.131Z,81.90
2024-02-14T12:21:27.939Z,82.80
2024-02-14T12:24:53.283Z,82.70
2024-02-14T12:28:19.204Z,84.30
2024-02-14T12:31:44.318Z,85.30
2024-02-14T12:35:10.391Z,86.30
2024-02-14T12:38:36.166Z,86.30
2024-02-14T12:42:00.086Z,84.90
2024-02-14T12:45:24.670Z,85.40
2024-02-14T12:48:49.256Z,85.40
2024-02-14T12:52:13.172Z,85.50
2024-02-14T12:55:38.083Z,86.30
2024-02-14T12:59:01.704Z,86.60
2024-02-14T13:02:25.922Z,87.30
2024-02-14T13:05:50.297Z,87.50
2024-02-14T13:09:16.594Z,87.30
2024-02-14T13:12:41.713Z,87.50
2024-02-14T13:16:07.332Z,87.10
2024-02-14T13:19:31.395Z,87.30
2024-02-14T13:22:55.121Z,86.80
2024-02-14T13:26:18.623Z,86.30
2024-02-14T13:29:43.453Z,86.60
2024-02-14T13:33:07.420Z,86.30
2024-02-14T13:36:31.850Z,86.30
2024-02-14T13:39:55.355Z,86.30
2024-02-14T13:43:19.203Z,86.20
2024-02-14T13:46:47.857Z,86.00
2024-02-14T13:50:13.560Z,85.40
2024-02-14T13:53:37.033Z,85.90
2024-02-14T13:57:00.644Z,86.00
2024-02-14T14:00:24.476Z,86.10
2024-02-14T14:03:51.462Z,86.00
2024-02-14T14:07:15.553Z,85.80
2024-02-14T14:10:39.110Z,86.00
2024-02-14T14:14:02.751Z,85.30
2024-02-14T14:17:27.234Z,85.60
2024-02-14T14:20:52.251Z,85.20
2024-02-14T14:24:17.030Z,84.70
2024-02-14T14:27:40.708Z,84.70
2024-02-14T14:31:04.272Z,84.30
2024-02-14T14:34:28.049Z,83.20
2024-02-14T14:37:53.155Z,83.30
2024-02-14T14:41:16.676Z,84.00
2024-02-14T14:44:40.913Z,84.80
2024-02-14T14:48:07.881Z,84.70
2024-02-14T14:51:31.849Z,84.70
2024-02-14T14:54:56.696Z,85.10
2024-02-14T14:58:20.440Z,84.50
2024-02-14T15:01:43.916Z,84.30
2024-02-14T15:05:08.215Z,84.30
2024-02-14T15:08:32.095Z,84.30
2024-02-14T15:11:58.041Z,84.60
2024-02-14T15:15:22.214Z,84.20
2024-02-14T15:18:47.584Z,84.60
2024-02-14T15:22:11.611Z,85.30
2024-02-14T15:25:37.250Z,84.50
2024-02-14T15:29:30.909Z,84.80
2024-02-14T15:33:15.395Z,85.00
2024-02-14T15:36:39.529Z,85.40
2024-02-14T15:40:03.391Z,85.50
2024-02-14T15:43:27.680Z,85.50
2024-02-14T15:46:52.715Z,85.30
2024-02-14T15:50:17.438Z,85.10
2024-02-14T15:53:41.564Z,85.00
2024-02-14T15:57:05.577Z,84.70
2024-02-14T16:00:31.046Z,84.40
2024-02-14T16:03:56.912Z,84.20
2024-02-14T16:07:20.428Z,84.10
2024-02-14T16:10:45.489Z,83.90
2024-02-14T16:14:09.140Z,83.90
2024-02-14T16:17:32.689Z,84.00
2024-02-14T16:20:58.221Z,84.10
2024-02-14T16:24:22.453Z,83.90
2024-02-14T16:27:47.498Z,83.80
2024-02-14T16:31:11.891Z,83.90
2024-02-14T16:34:38.542Z,83.70
2024-02-14T16:38:03.919Z,83.80
2024-02-14T16:41:27.810Z,83.60
2024-02-14T16:44:51.917Z,83.80
2024-02-14T16:48:15.718Z,83.70
2024-02-14T16:51:39.521Z,83.70
2024-02-14T16:55:05.690Z,83.70
2024-02-14T16:58:30.245Z,83.50
2024-02-14T17:01:54.648Z,83.50
2024-02-14T17:05:18.450Z,83.60
2024-02-14T17:08:44.071Z,83.40
2024-02-14T17:12:10.010Z,83.60
2024-02-14T17:15:33.792Z,83.50
2024-02-14T17:18:58.652Z,83.70
2024-02-14T17:22:27.869Z,84.30
2024-02-14T17:25:56.197Z,83.70
2024-02-14T17:29:21.919Z,83.70
2024-02-14T17:32:49.408Z,83.40
2024-02-14T17:36:13.348Z,83.50
2024-02-14T17:39:37.586Z,83.50
2024-02-14T17:43:01.006Z,83.50
2024-02-14T17:46:26.257Z,83.70
2024-02-14T17:49:50.095Z,83.50
2024-02-14T17:53:13.846Z,83.80
2024-02-14T17:56:37.530Z,83.80
2024-02-14T18:00:02.376Z,83.70
2024-02-14T18:03:36.348Z,83.70
2024-02-14T18:06:59.878Z,83.50
2024-02-14T18:10:24.643Z,83.70
2024-02-14T18:13:53.494Z,83.80
2024-02-14T18:17:16.996Z,84.00
2024-02-14T18:20:41.973Z,83.90
2024-02-14T18:24:06.930Z,84.30
2024-02-14T18:27:30.446Z,83.90
2024-02-14T18:30:54.636Z,83.90
2024-02-14T18:34:18.451Z,83.80
2024-02-14T18:37:43.830Z,83.90
2024-02-14T18:41:07.945Z,83.90
2024-02-14T18:44:31.420Z,84.00
2024-02-14T18:47:55.107Z,83.80
2024-02-14T18:51:18.586Z,83.90
2024-02-14T18:54:43.711Z,83.50
2024-02-14T18:58:07.857Z,83.70
2024-02-14T19:01:31.464Z,83.90
2024-02-14T19:04:55.339Z,83.80
2024-02-14T19:08:18.843Z,83.60
2024-02-14T19:11:44.102Z,83.80
2024-02-14T19:15:09.798Z,83.60
2024-02-14T19:18:34.371Z,83.70
2024-02-14T19:21:58.291Z,83.30
2024-02-14T19:25:22.297Z,83.30
2024-02-14T19:28:47.441Z,83.30
2024-02-14T19:32:10.866Z,83.30
2024-02-14T19:35:34.329Z,83.40
2024-02-14T19:38:57.900Z,83.40
2024-02-14T19:42:22.347Z,83.50
2024-02-14T19:45:47.184Z,83.50
2024-02-14T19:49:14.813Z,83.40
2024-02-14T19:52:38.768Z,83.30
2024-02-14T19:56:02.640Z,83.40
2024-02-14T19:59:26.167Z,83.40
2024-02-14T20:02:51.739Z,83.40
2024-02-14T20:06:15.972Z,83.40
2024-02-14T20:09:39.654Z,83.30
2024-02-14T20:13:03.338Z,83.10
2024-02-14T20:16:27.561Z,83.20
2024-02-14T20:19:52.609Z,83.10
2024-02-14T20:23:16.088Z,83.10
2024-02-14T20:26:39.824Z,83.20
2024-02-14T20:30:05.245Z,83.40
2024-02-14T20:33:28.917Z,83.50
2024-02-14T20:36:54.513Z,83.70
2024-02-14T20:40:18.225Z,83.60
2024-02-14T20:43:41.663Z,83.50
2024-02-14T20:47:06.262Z,83.70
2024-02-14T20:50:30.588Z,83.50
2024-02-14T20:53:55.542Z,83.70
2024-02-14T20:57:19.172Z,83.60
2024-02-14T21:00:44.253Z,83.80
2024-02-14T21:04:07.927Z,83.70
2024-02-14T21:07:31.499Z,83.60
2024-02-14T21:10:56.834Z,83.60
2024-02-14T21:14:20.808Z,83.50
2024-02-14T21:17:44.304Z,83.60
2024-02-14T21:21:08.086Z,83.60
2024-02-14T21:24:31.691Z,83.50
2024-02-14T21:27:57.191Z,83.80
2024-02-14T21:31:22.011Z,83.90
2024-02-14T21:34:45.987Z,84.10
2024-02-14T21:38:09.530Z,84.00
2024-02-14T21:41:33.051Z,84.10
2024-02-14T21:44:57.908Z,84.20
2024-02-14T21:48:22.541Z,84.20
2024-02-14T21:51:47.234Z,84.50
2024-02-14T21:55:11.123Z,84.60
2024-02-14T21:58:34.614Z,84.60
2024-02-14T22:02:00.511Z,84.60
2024-02-14T22:05:25.470Z,84.60
2024-02-14T22:08:49.599Z,84.60
2024-02-14T22:12:13.652Z,85.10
2024-02-14T22:15:37.142Z,84.60
2024-02-14T22:19:03.346Z,84.60
2024-02-14T22:22:27.054Z,84.50
2024-02-14T22:25:50.539Z,84.60
2024-02-14T22:29:14.482Z,84.50
2024-02-14T22:32:38.696Z,84.50
2024-02-14T22:36:03.869Z,84.60
2024-02-14T22:39:27.427Z,84.50
2024-02-14T22:42:51.189Z,84.60
2024-02-14T22:46:14.618Z,85.10
2024-02-14T22:49:39.011Z,84.80
2024-02-14T22:53:04.898Z,84.90
2024-02-14T22:56:28.905Z,84.70
2024-02-14T22:59:52.590Z,84.90
2024-02-14T23:03:16.450Z,84.80
2024-02-14T23:06:43.922Z,84.70
2024-02-14T23:10:11.405Z,84.60
2024-02-14T23:13:35.186Z,84.60
2024-02-14T23:16:58.781Z,84.70
2024-02-14T23:20:22.831Z,84.80
2024-02-14T23:23:47.242Z,84.70
2024-02-14T23:27:14.542Z,85.60
2024-02-14T23:30:40.717Z,84.60
2024-02-14T23:34:04.418Z,84.60
2024-02-14T23:37:28.015Z,84.60
2024-02-14T23:40:51.739Z,84.50
2024-02-14T23:44:16.578Z,85.20
2024-02-14T23:47:40.712Z,84.20
2024-02-14T23:51:04.347Z,84.20
2024-02-14T23:54:27.782Z,84.00
2024-02-14T23:57:52.549Z,84.00
